createdAt,value
2018-11-13T00:00:44.298Z,19.9
2018-11-13T00:01:44.024Z,19.9
2018-11-13T00:02:44.250Z,19.9
2018-11-13T00:03:44.092Z,19.91
2018-11-13T00:04:44.469Z,19.89
2018-11-13T00:05:44.003Z,19.91
2018-11-13T00:06:44.228Z,19.92
2018-11-13T00:07:44.313Z,19.89
2018-11-13T00:08:44.215Z,19.89
2018-11-13T00:09:44.538Z,19.89
2018-11-13T00:10:44.111Z,19.89
2018-11-13T00:11:44.203Z,19.9
2018-11-13T00:12:44.457Z,19.87
2018-11-13T00:13:44.328Z,19.89
2018-11-13T00:14:44.253Z,19.89
2018-11-13T00:15:44.183Z,19.88
2018-11-13T00:16:44.043Z,19.86
2018-11-13T00:17:44.212Z,19.88
2018-11-13T00:18:44.251Z,19.88
2018-11-13T00:19:44.237Z,19.88
2018-11-13T00:20:43.979Z,19.85
2018-11-13T00:21:44.189Z,19.88
2018-11-13T00:22:44.258Z,19.88
2018-11-13T00:23:44.026Z,19.86
2018-11-13T00:24:44.059Z,19.86
2018-11-13T00:25:44.060Z,19.88
2018-11-13T00:26:44.148Z,19.88
2018-11-13T00:27:45.038Z,19.86
2018-11-13T00:28:44.146Z,19.86
2018-11-13T00:29:44.125Z,19.86
2018-11-13T00:30:44.235Z,19.86
2018-11-13T00:31:44.203Z,19.84
2018-11-13T00:32:44.284Z,19.85
2018-11-13T00:33:44.115Z,19.85
2018-11-13T00:34:44.019Z,19.85
2018-11-13T00:35:44.499Z,19.86
2018-11-13T00:36:44.120Z,19.83
2018-11-13T00:37:44.156Z,19.85
2018-11-13T00:38:44.007Z,19.84
2018-11-13T00:39:44.335Z,19.85
2018-11-13T00:40:44.003Z,19.83
2018-11-13T00:41:44.132Z,19.85
2018-11-13T00:42:43.984Z,19.85
2018-11-13T00:43:44.057Z,19.83
2018-11-13T00:44:44.189Z,19.84
2018-11-13T00:45:46.720Z,19.84
2018-11-13T00:46:44.164Z,19.83
2018-11-13T00:47:44.189Z,19.83
2018-11-13T00:48:44.123Z,19.82
2018-11-13T00:49:44.291Z,19.84
2018-11-13T00:50:46.825Z,19.83
2018-11-13T00:51:44.118Z,19.83
2018-11-13T00:52:44.314Z,19.83
2018-11-13T00:53:44.322Z,19.83
2018-11-13T00:54:44.884Z,19.83
2018-11-13T00:55:44.432Z,19.82
2018-11-13T00:56:44.173Z,19.84
2018-11-13T00:57:44.135Z,19.81
2018-11-13T00:58:44.426Z,19.81
2018-11-13T00:59:44.100Z,19.82
2018-11-13T01:00:44.770Z,19.81
2018-11-13T01:01:44.046Z,19.81
2018-11-13T01:02:44.520Z,19.8
2018-11-13T01:03:44.239Z,19.79
2018-11-13T01:04:44.443Z,19.81
2018-11-13T01:05:45.892Z,19.79
2018-11-13T01:06:44.108Z,19.8
2018-11-13T01:07:45.008Z,19.8
2018-11-13T01:08:44.186Z,19.76
2018-11-13T01:09:44.005Z,19.79
2018-11-13T01:10:43.992Z,19.77
2018-11-13T01:11:44.520Z,19.8
2018-11-13T01:12:44.508Z,19.8
2018-11-13T01:13:44.081Z,19.79
2018-11-13T01:14:44.251Z,19.76
2018-11-13T01:15:44.112Z,19.79
2018-11-13T01:16:44.143Z,19.76
2018-11-13T01:17:43.990Z,19.76
2018-11-13T01:18:44.211Z,19.75
2018-11-13T01:19:44.037Z,19.77
2018-11-13T01:20:44.065Z,19.77
2018-11-13T01:21:44.217Z,19.76
2018-11-13T01:22:44.192Z,19.75
2018-11-13T01:23:44.405Z,19.77
2018-11-13T01:24:44.467Z,19.76
2018-11-13T01:25:44.182Z,19.75
2018-11-13T01:26:44.156Z,19.75
2018-11-13T01:27:44.080Z,19.75
2018-11-13T01:28:44.288Z,19.75
2018-11-13T01:29:44.386Z,19.75
2018-11-13T01:30:44.100Z,19.75
2018-11-13T01:31:44.218Z,19.72
2018-11-13T01:32:44.049Z,19.73
2018-11-13T01:33:44.175Z,19.73
2018-11-13T01:34:44.262Z,19.74
2018-11-13T01:35:44.046Z,19.73
2018-11-13T01:36:44.263Z,19.75
2018-11-13T01:37:44.249Z,19.72
2018-11-13T01:38:44.159Z,19.73
2018-11-13T01:39:44.089Z,19.72
2018-11-13T01:40:44.132Z,19.73
2018-11-13T01:41:45.499Z,19.73
2018-11-13T01:42:44.375Z,19.72
2018-11-13T01:43:43.946Z,19.71
2018-11-13T01:44:44.161Z,19.71
2018-11-13T01:45:44.176Z,19.71
2018-11-13T01:46:44.407Z,19.71
2018-11-13T01:47:44.328Z,19.71
2018-11-13T01:48:44.021Z,19.7
2018-11-13T01:49:44.101Z,19.71
2018-11-13T01:50:44.048Z,19.7
2018-11-13T01:51:44.284Z,19.69
2018-11-13T01:52:44.235Z,19.7
2018-11-13T01:53:44.158Z,19.71
2018-11-13T01:54:43.973Z,19.69
2018-11-13T01:55:44.143Z,19.68
2018-11-13T01:56:44.127Z,19.7
2018-11-13T01:57:44.115Z,19.69
2018-11-13T01:58:44.140Z,19.69
2018-11-13T01:59:43.981Z,19.7
2018-11-13T02:00:44.115Z,19.69
2018-11-13T02:01:44.094Z,19.67
2018-11-13T02:02:44.204Z,19.7
2018-11-13T02:03:43.946Z,19.69
2018-11-13T02:04:44.062Z,19.69
2018-11-13T02:05:44.260Z,19.68
2018-11-13T02:06:44.166Z,19.67
2018-11-13T02:07:44.180Z,19.68
2018-11-13T02:08:44.002Z,19.69
2018-11-13T02:09:44.188Z,19.69
2018-11-13T02:10:44.006Z,19.69
2018-11-13T02:11:44.174Z,19.67
2018-11-13T02:12:43.922Z,19.66
2018-11-13T02:13:44.122Z,19.67
2018-11-13T02:14:44.026Z,19.68
2018-11-13T02:15:44.097Z,19.67
2018-11-13T02:16:44.107Z,19.67
2018-11-13T02:17:44.617Z,19.67
2018-11-13T02:18:43.944Z,19.68
2018-11-13T02:19:44.336Z,19.69
2018-11-13T02:20:44.378Z,19.66
2018-11-13T02:21:43.937Z,19.66
2018-11-13T02:22:44.200Z,19.68
2018-11-13T02:23:44.299Z,19.65
2018-11-13T02:24:44.167Z,19.66
2018-11-13T02:25:44.042Z,19.67
2018-11-13T02:26:44.109Z,19.67
2018-11-13T02:27:44.321Z,19.65
2018-11-13T02:28:44.119Z,19.65
2018-11-13T02:29:44.125Z,19.66
2018-11-13T02:30:43.930Z,19.65
2018-11-13T02:31:44.420Z,19.62
2018-11-13T02:32:44.000Z,19.65
2018-11-13T02:33:44.264Z,19.66
2018-11-13T02:34:43.925Z,19.65
2018-11-13T02:35:45.396Z,19.65
2018-11-13T02:36:44.074Z,19.62
2018-11-13T02:37:44.084Z,19.62
2018-11-13T02:38:43.986Z,19.62
2018-11-13T02:39:43.936Z,19.65
2018-11-13T02:40:44.413Z,19.62
2018-11-13T02:41:44.030Z,19.65
2018-11-13T02:42:44.108Z,19.63
2018-11-13T02:43:44.299Z,19.63
2018-11-13T02:44:44.415Z,19.62
2018-11-13T02:45:44.216Z,19.62
2018-11-13T02:46:44.249Z,19.63
2018-11-13T02:47:43.994Z,19.62
2018-11-13T02:48:44.170Z,19.63
2018-11-13T02:49:44.164Z,19.62
2018-11-13T02:50:44.212Z,19.63
2018-11-13T02:51:44.054Z,19.6
2018-11-13T02:52:44.290Z,19.61
2018-11-13T02:53:44.104Z,19.63
2018-11-13T02:54:44.066Z,19.61
2018-11-13T02:55:44.230Z,19.6
2018-11-13T02:56:44.023Z,19.62
2018-11-13T02:57:43.966Z,19.62
2018-11-13T02:58:44.298Z,19.62
2018-11-13T02:59:44.103Z,19.61
2018-11-13T03:00:43.984Z,19.62
2018-11-13T03:01:44.149Z,19.62
2018-11-13T03:02:44.205Z,19.61
2018-11-13T03:03:44.366Z,19.62
2018-11-13T03:04:43.880Z,19.6
2018-11-13T03:05:44.396Z,19.6
2018-11-13T03:06:43.915Z,19.62
2018-11-13T03:07:44.062Z,19.6
2018-11-13T03:08:44.177Z,19.59
2018-11-13T03:09:44.227Z,19.6
2018-11-13T03:10:44.216Z,19.6
2018-11-13T03:11:43.961Z,19.6
2018-11-13T03:12:44.282Z,19.6
2018-11-13T03:13:44.790Z,19.61
2018-11-13T03:14:44.142Z,19.59
2018-11-13T03:15:44.268Z,19.59
2018-11-13T03:16:44.136Z,19.58
2018-11-13T03:17:44.197Z,19.59
2018-11-13T03:18:44.008Z,19.58
2018-11-13T03:19:44.359Z,19.58
2018-11-13T03:20:44.024Z,19.57
2018-11-13T03:21:44.242Z,19.57
2018-11-13T03:22:44.176Z,19.6
2018-11-13T03:23:44.474Z,19.57
2018-11-13T03:24:44.214Z,19.58
2018-11-13T03:25:44.124Z,19.61
2018-11-13T03:26:44.150Z,19.57
2018-11-13T03:27:44.441Z,19.58
2018-11-13T03:28:44.198Z,19.59
2018-11-13T03:29:44.063Z,19.57
2018-11-13T03:30:44.468Z,19.57
2018-11-13T03:31:44.241Z,19.56
2018-11-13T03:32:44.380Z,19.56
2018-11-13T03:33:43.889Z,19.55
2018-11-13T03:34:44.619Z,19.57
2018-11-13T03:35:44.138Z,19.58
2018-11-13T03:36:43.932Z,19.56
2018-11-13T03:37:44.153Z,19.57
2018-11-13T03:38:44.006Z,19.57
2018-11-13T03:39:44.088Z,19.58
2018-11-13T03:40:43.988Z,19.57
2018-11-13T03:41:44.115Z,19.58
2018-11-13T03:42:44.413Z,19.56
2018-11-13T03:43:44.075Z,19.57
2018-11-13T03:44:43.952Z,19.55
2018-11-13T03:45:44.594Z,19.55
2018-11-13T03:46:43.929Z,19.57
2018-11-13T03:47:43.868Z,19.55
2018-11-13T03:48:43.873Z,19.57
2018-11-13T03:49:44.073Z,19.55
2018-11-13T03:50:44.445Z,19.56
2018-11-13T03:51:43.998Z,19.55
2018-11-13T03:52:44.433Z,19.55
2018-11-13T03:53:44.101Z,19.56
2018-11-13T03:54:44.019Z,19.55
2018-11-13T03:55:44.131Z,19.55
2018-11-13T03:56:43.853Z,19.56
2018-11-13T03:57:44.264Z,19.56
2018-11-13T03:58:44.153Z,19.55
2018-11-13T03:59:44.234Z,19.56
2018-11-13T04:00:44.049Z,19.54
2018-11-13T04:01:44.353Z,19.54
2018-11-13T04:02:44.439Z,19.55
2018-11-13T04:03:44.152Z,19.56
2018-11-13T04:04:44.270Z,19.54
2018-11-13T04:05:44.347Z,19.56
2018-11-13T04:06:44.074Z,19.54
2018-11-13T04:07:44.670Z,19.56
2018-11-13T04:08:43.916Z,19.54
2018-11-13T04:09:44.128Z,19.52
2018-11-13T04:10:43.872Z,19.55
2018-11-13T04:11:44.020Z,19.54
2018-11-13T04:12:44.170Z,19.54
2018-11-13T04:13:44.074Z,19.52
2018-11-13T04:14:43.811Z,19.54
2018-11-13T04:15:43.996Z,19.55
2018-11-13T04:16:44.284Z,19.53
2018-11-13T04:17:43.918Z,19.53
2018-11-13T04:18:44.344Z,19.52
2018-11-13T04:19:44.171Z,19.52
2018-11-13T04:20:44.133Z,19.54
2018-11-13T04:21:44.134Z,19.52
2018-11-13T04:22:44.093Z,19.53
2018-11-13T04:23:44.097Z,19.54
2018-11-13T04:24:43.955Z,19.54
2018-11-13T04:25:44.200Z,19.54
2018-11-13T04:26:44.033Z,19.54
2018-11-13T04:27:44.050Z,19.53
2018-11-13T04:28:44.036Z,19.52
2018-11-13T04:29:44.044Z,19.54
2018-11-13T04:30:45.112Z,19.52
2018-11-13T04:31:44.265Z,19.53
2018-11-13T04:32:44.192Z,19.51
2018-11-13T04:33:44.420Z,19.54
2018-11-13T04:34:44.104Z,19.52
2018-11-13T04:35:44.032Z,19.52
2018-11-13T04:36:44.187Z,19.54
2018-11-13T04:37:43.938Z,19.52
2018-11-13T04:38:44.092Z,19.52
2018-11-13T04:39:44.238Z,19.51
2018-11-13T04:40:44.083Z,19.5
2018-11-13T04:41:43.873Z,19.54
2018-11-13T04:42:44.369Z,19.55
2018-11-13T04:43:43.942Z,19.53
2018-11-13T04:44:44.444Z,19.52
2018-11-13T04:45:44.124Z,19.53
2018-11-13T04:46:44.906Z,19.53
2018-11-13T04:47:44.343Z,19.55
2018-11-13T04:48:43.966Z,19.55
2018-11-13T04:49:44.045Z,19.56
2018-11-13T04:50:44.035Z,19.56
2018-11-13T04:51:45.332Z,19.57
2018-11-13T04:52:44.024Z,19.56
2018-11-13T04:53:44.131Z,19.58
2018-11-13T04:54:44.433Z,19.59
2018-11-13T04:55:44.006Z,19.56
2018-11-13T04:56:44.308Z,19.61
2018-11-13T04:57:43.966Z,19.6
2018-11-13T04:58:44.233Z,19.63
2018-11-13T04:59:43.980Z,19.63
2018-11-13T05:00:44.272Z,19.62
2018-11-13T05:01:43.949Z,19.66
2018-11-13T05:02:44.370Z,19.67
2018-11-13T05:03:44.070Z,19.67
2018-11-13T05:04:44.009Z,19.68
2018-11-13T05:05:44.094Z,19.69
2018-11-13T05:06:44.052Z,19.68
2018-11-13T05:07:44.299Z,19.7
2018-11-13T05:08:43.855Z,19.71
2018-11-13T05:09:44.093Z,19.72
2018-11-13T05:10:43.909Z,19.74
2018-11-13T05:11:44.118Z,19.73
2018-11-13T05:12:43.911Z,19.76
2018-11-13T05:13:44.036Z,19.76
2018-11-13T05:14:44.148Z,19.77
2018-11-13T05:15:44.037Z,19.81
2018-11-13T05:16:44.078Z,19.8
2018-11-13T05:17:44.057Z,19.82
2018-11-13T05:18:44.130Z,19.83
2018-11-13T05:19:44.367Z,19.84
2018-11-13T05:20:44.361Z,19.84
2018-11-13T05:21:44.922Z,19.85
2018-11-13T05:22:44.310Z,19.86
2018-11-13T05:23:43.865Z,19.87
2018-11-13T05:24:44.051Z,19.88
2018-11-13T05:25:44.437Z,19.89
2018-11-13T05:26:43.874Z,19.91
2018-11-13T05:27:44.323Z,19.89
2018-11-13T05:28:44.003Z,19.92
2018-11-13T05:29:43.998Z,19.94
2018-11-13T05:30:43.996Z,19.95
2018-11-13T05:31:44.100Z,19.97
2018-11-13T05:32:44.055Z,19.98
2018-11-13T05:33:44.143Z,19.98
2018-11-13T05:34:43.980Z,19.98
2018-11-13T05:35:44.317Z,20.01
2018-11-13T05:36:43.847Z,20.01
2018-11-13T05:37:44.373Z,20.02
2018-11-13T05:38:44.198Z,20.02
2018-11-13T05:39:44.088Z,20.03
2018-11-13T05:40:44.314Z,20.03
2018-11-13T05:41:44.709Z,20.06
2018-11-13T05:42:44.104Z,20.06
2018-11-13T05:43:44.053Z,20.06
2018-11-13T05:44:43.799Z,20.07
2018-11-13T05:45:44.201Z,20.07
2018-11-13T05:46:44.123Z,20.06
2018-11-13T05:47:43.936Z,20.09
2018-11-13T05:48:43.961Z,20.1
2018-11-13T05:49:44.306Z,20.09
2018-11-13T05:50:43.914Z,20.11
2018-11-13T05:51:44.075Z,20.12
2018-11-13T05:52:44.234Z,20.12
2018-11-13T05:53:43.849Z,20.12
2018-11-13T05:54:43.828Z,20.11
2018-11-13T05:55:44.134Z,20.14
2018-11-13T05:56:44.199Z,20.14
2018-11-13T05:57:44.019Z,20.16
2018-11-13T05:58:43.958Z,20.15
2018-11-13T05:59:44.572Z,20.13
2018-11-13T06:00:44.597Z,20.15
2018-11-13T06:01:43.886Z,20.14
2018-11-13T06:02:43.960Z,20.15
2018-11-13T06:03:44.005Z,20.15
2018-11-13T06:04:44.206Z,20.16
2018-11-13T06:05:44.352Z,20.17
2018-11-13T06:06:44.032Z,20.16
2018-11-13T06:07:44.117Z,20.16
2018-11-13T06:08:45.170Z,20.14
2018-11-13T06:09:43.970Z,20.15
2018-11-13T06:10:44.147Z,20.16
2018-11-13T06:11:43.806Z,20.18
2018-11-13T06:12:44.237Z,20.16
2018-11-13T06:13:44.146Z,20.17
2018-11-13T06:14:44.275Z,20.17
2018-11-13T06:15:44.133Z,20.17
2018-11-13T06:16:44.501Z,20.17
2018-11-13T06:17:44.289Z,20.15
2018-11-13T06:18:43.927Z,20.16
2018-11-13T06:19:44.322Z,20.18
2018-11-13T06:20:43.846Z,20.17
2018-11-13T06:21:44.324Z,20.17
2018-11-13T06:22:44.543Z,20.16
2018-11-13T06:23:43.905Z,20.17
2018-11-13T06:24:44.046Z,20.16
2018-11-13T06:25:44.022Z,20.16
2018-11-13T06:26:44.600Z,20.13
2018-11-13T06:27:43.930Z,20.16
2018-11-13T06:28:43.998Z,20.16
2018-11-13T06:29:44.968Z,20.17
2018-11-13T06:30:44.071Z,20.17
2018-11-13T06:31:44.158Z,20.19
2018-11-13T06:32:43.923Z,20.17
2018-11-13T06:33:44.091Z,20.16
2018-11-13T06:34:44.020Z,20.16
2018-11-13T06:35:44.095Z,20.17
2018-11-13T06:36:43.951Z,20.15
2018-11-13T06:37:44.445Z,20.18
2018-11-13T06:38:45.403Z,20.16
2018-11-13T06:39:43.973Z,20.15
2018-11-13T06:40:43.906Z,20.15
2018-11-13T06:41:44.112Z,20.16
2018-11-13T06:42:43.873Z,20.15
2018-11-13T06:43:43.869Z,20.14
2018-11-13T06:44:44.119Z,20.16
2018-11-13T06:45:43.995Z,20.15
2018-11-13T06:46:44.029Z,20.14
2018-11-13T06:47:43.978Z,20.15
2018-11-13T06:48:44.052Z,20.15
2018-11-13T06:49:44.870Z,20.14
2018-11-13T06:50:43.946Z,20.15
2018-11-13T06:51:44.775Z,20.12
2018-11-13T06:52:43.836Z,20.14
2018-11-13T06:53:43.865Z,20.15
2018-11-13T06:54:43.998Z,20.14
2018-11-13T06:55:44.187Z,20.14
2018-11-13T06:56:43.952Z,20.14
2018-11-13T06:57:44.380Z,20.13
2018-11-13T06:58:44.018Z,20.14
2018-11-13T06:59:44.076Z,20.14
2018-11-13T07:00:44.473Z,20.12
2018-11-13T07:01:43.786Z,20.12
2018-11-13T07:02:43.912Z,20.14
2018-11-13T07:03:44.192Z,20.12
2018-11-13T07:04:43.858Z,20.11
2018-11-13T07:05:44.050Z,20.13
2018-11-13T07:06:44.496Z,20.11
2018-11-13T07:07:43.933Z,20.11
2018-11-13T07:08:44.024Z,20.11
2018-11-13T07:09:43.916Z,20.11
2018-11-13T07:10:44.946Z,20.11
2018-11-13T07:11:43.833Z,20.1
2018-11-13T07:12:44.206Z,20.09
2018-11-13T07:13:44.086Z,20.09
2018-11-13T07:14:44.152Z,20.12
2018-11-13T07:15:44.009Z,20.1
2018-11-13T07:16:44.198Z,20.07
2018-11-13T07:17:44.309Z,20.09
2018-11-13T07:18:43.918Z,20.09
2018-11-13T07:19:43.869Z,20.09
2018-11-13T07:20:43.931Z,20.06
2018-11-13T07:21:44.088Z,20.07
2018-11-13T07:22:44.107Z,20.07
2018-11-13T07:23:43.946Z,20.07
2018-11-13T07:24:43.839Z,20.07
2018-11-13T07:25:43.944Z,20.07
2018-11-13T07:26:44.205Z,20.07
2018-11-13T07:27:44.901Z,20.05
2018-11-13T07:28:44.073Z,20.07
2018-11-13T07:29:43.889Z,20.04
2018-11-13T07:30:44.276Z,20.04
2018-11-13T07:31:43.967Z,20.05
2018-11-13T07:32:44.055Z,20.05
2018-11-13T07:33:44.484Z,20.04
2018-11-13T07:34:43.905Z,20.03
2018-11-13T07:35:43.791Z,20.04
2018-11-13T07:36:44.228Z,20.04
2018-11-13T07:37:44.149Z,20.02
2018-11-13T07:38:44.026Z,20.03
2018-11-13T07:39:44.406Z,20.03
2018-11-13T07:40:44.207Z,20.03
2018-11-13T07:41:44.119Z,20.02
2018-11-13T07:42:44.205Z,20.02
2018-11-13T07:43:44.228Z,20.02
2018-11-13T07:44:43.952Z,20.01
2018-11-13T07:45:44.234Z,20.02
2018-11-13T07:46:44.847Z,20.02
2018-11-13T07:47:45.756Z,20.03
2018-11-13T07:48:44.079Z,20.01
2018-11-13T07:49:43.891Z,20.01
2018-11-13T07:50:44.017Z,20
2018-11-13T07:51:44.079Z,19.99
2018-11-13T07:52:44.032Z,20.01
2018-11-13T07:53:44.076Z,20.02
2018-11-13T07:54:44.192Z,20
2018-11-13T07:55:44.002Z,20.01
2018-11-13T07:56:43.995Z,19.99
2018-11-13T07:57:44.194Z,20.01
2018-11-13T07:58:44.191Z,20.01
2018-11-13T07:59:43.995Z,19.99
2018-11-13T08:00:43.982Z,20
2018-11-13T08:01:44.054Z,19.99
2018-11-13T08:02:44.020Z,20.01
2018-11-13T08:03:44.696Z,19.98
2018-11-13T08:04:43.912Z,20
2018-11-13T08:05:44.712Z,19.99
2018-11-13T08:06:45.311Z,19.98
2018-11-13T08:07:43.849Z,19.96
2018-11-13T08:08:43.963Z,19.99
2018-11-13T08:09:44.185Z,19.97
2018-11-13T08:10:44.087Z,19.96
2018-11-13T08:11:44.116Z,19.98
2018-11-13T08:12:44.794Z,19.98
2018-11-13T08:13:43.844Z,19.97
2018-11-13T08:14:43.882Z,19.98
2018-11-13T08:15:44.115Z,19.95
2018-11-13T08:16:44.278Z,19.97
2018-11-13T08:17:43.953Z,19.96
2018-11-13T08:18:44.090Z,19.97
2018-11-13T08:19:44.061Z,19.96
2018-11-13T08:20:43.808Z,19.96
2018-11-13T08:21:43.920Z,19.97
2018-11-13T08:22:43.884Z,19.98
2018-11-13T08:23:43.891Z,19.95
2018-11-13T08:24:44.194Z,19.95
2018-11-13T08:25:44.578Z,19.95
2018-11-13T08:26:44.015Z,19.94
2018-11-13T08:27:44.842Z,19.97
2018-11-13T08:28:44.488Z,19.95
2018-11-13T08:29:44.146Z,19.95
2018-11-13T08:30:44.636Z,19.94
2018-11-13T08:31:43.775Z,19.94
2018-11-13T08:32:43.974Z,19.94
2018-11-13T08:33:43.983Z,19.94
2018-11-13T08:34:44.029Z,19.91
2018-11-13T08:35:44.706Z,19.91
2018-11-13T08:36:43.796Z,19.9
2018-11-13T08:37:43.961Z,19.9
2018-11-13T08:38:44.115Z,19.89
2018-11-13T08:39:43.944Z,19.88
2018-11-13T08:40:43.986Z,19.89
2018-11-13T08:41:43.928Z,19.85
2018-11-13T08:42:44.340Z,19.86
2018-11-13T08:43:44.522Z,19.85
2018-11-13T08:44:44.267Z,19.85
2018-11-13T08:45:44.123Z,19.84
2018-11-13T08:46:43.889Z,19.85
2018-11-13T08:47:44.118Z,19.86
2018-11-13T08:48:43.915Z,19.84
2018-11-13T08:49:43.826Z,19.85
2018-11-13T08:50:44.317Z,19.85
2018-11-13T08:51:44.024Z,19.85
2018-11-13T08:52:43.906Z,19.84
2018-11-13T08:53:44.083Z,19.86
2018-11-13T08:54:43.771Z,19.87
2018-11-13T08:55:43.931Z,19.85
2018-11-13T08:56:43.990Z,19.86
2018-11-13T08:57:43.896Z,19.86
2018-11-13T08:58:44.035Z,19.85
2018-11-13T08:59:44.998Z,19.84
2018-11-13T09:00:43.961Z,19.85
2018-11-13T09:01:44.146Z,19.85
2018-11-13T09:02:44.303Z,19.85
2018-11-13T09:03:44.004Z,19.84
2018-11-13T09:04:44.136Z,19.83
2018-11-13T09:05:44.302Z,19.83
2018-11-13T09:06:43.917Z,19.84
2018-11-13T09:07:43.738Z,19.84
2018-11-13T09:08:44.102Z,19.85
2018-11-13T09:09:43.979Z,19.83
2018-11-13T09:10:43.981Z,19.82
2018-11-13T09:11:45.069Z,19.84
2018-11-13T09:12:43.894Z,19.85
2018-11-13T09:13:43.949Z,19.82
2018-11-13T09:14:44.113Z,19.85
2018-11-13T09:15:44.347Z,19.83
2018-11-13T09:16:44.015Z,19.84
2018-11-13T09:17:44.038Z,19.83
2018-11-13T09:18:44.645Z,19.82
2018-11-13T09:19:45.277Z,19.82
2018-11-13T09:20:44.235Z,19.83
2018-11-13T09:21:44.550Z,19.85
2018-11-13T09:22:44.331Z,19.82
2018-11-13T09:23:43.937Z,19.83
2018-11-13T09:24:44.430Z,19.83
2018-11-13T09:25:43.724Z,19.81
2018-11-13T09:26:44.123Z,19.82
2018-11-13T09:27:44.366Z,19.81
2018-11-13T09:28:44.038Z,19.83
2018-11-13T09:29:44.688Z,19.82
2018-11-13T09:30:46.967Z,19.82
2018-11-13T09:31:44.469Z,19.83
2018-11-13T09:32:44.070Z,19.82
2018-11-13T09:33:44.474Z,19.82
2018-11-13T09:34:43.931Z,19.82
2018-11-13T09:35:43.938Z,19.82
2018-11-13T09:36:43.951Z,19.81
2018-11-13T09:37:44.006Z,19.83
2018-11-13T09:38:44.143Z,19.82
2018-11-13T09:39:43.928Z,19.81
2018-11-13T09:40:44.069Z,19.82
2018-11-13T09:41:43.839Z,19.82
2018-11-13T09:42:44.006Z,19.82
2018-11-13T09:43:43.752Z,19.82
2018-11-13T09:44:44.540Z,19.85
2018-11-13T09:45:44.214Z,19.83
2018-11-13T09:46:44.137Z,19.87
2018-11-13T09:47:44.964Z,19.86
2018-11-13T09:48:44.515Z,19.86
2018-11-13T09:49:44.090Z,19.87
2018-11-13T09:50:44.552Z,19.89
2018-11-13T09:51:44.692Z,19.87
2018-11-13T09:52:43.820Z,19.89
2018-11-13T09:53:45.111Z,19.88
2018-11-13T09:54:43.980Z,19.9
2018-11-13T09:55:44.363Z,19.9
2018-11-13T09:56:44.045Z,19.9
2018-11-13T09:57:43.752Z,19.91
2018-11-13T09:58:44.782Z,19.89
2018-11-13T09:59:43.772Z,19.9
2018-11-13T10:00:45.710Z,19.92
2018-11-13T10:01:47.130Z,19.92
2018-11-13T10:02:49.752Z,19.91
2018-11-13T10:03:49.452Z,19.92
2018-11-13T10:04:49.978Z,19.92
2018-11-13T10:05:45.922Z,19.95
2018-11-13T10:06:44.230Z,19.94
2018-11-13T10:07:43.986Z,19.95
2018-11-13T10:08:43.873Z,19.95
2018-11-13T10:09:44.226Z,19.96
2018-11-13T10:10:44.823Z,19.96
2018-11-13T10:11:43.804Z,19.97
2018-11-13T10:12:44.005Z,19.97
2018-11-13T10:13:43.815Z,19.97
2018-11-13T10:14:43.924Z,19.96
2018-11-13T10:15:43.830Z,19.96
2018-11-13T10:16:44.078Z,19.97
2018-11-13T10:17:44.944Z,19.98
2018-11-13T10:18:43.841Z,19.98
2018-11-13T10:19:44.080Z,19.98
2018-11-13T10:20:44.187Z,19.98
2018-11-13T10:21:44.039Z,19.98
2018-11-13T10:22:43.783Z,19.96
2018-11-13T10:23:44.347Z,19.98
2018-11-13T10:24:43.983Z,19.96
2018-11-13T10:25:44.122Z,19.96
2018-11-13T10:26:44.342Z,19.96
2018-11-13T10:27:44.516Z,19.94
2018-11-13T10:28:43.723Z,19.92
2018-11-13T10:29:43.877Z,19.92
2018-11-13T10:30:43.983Z,19.94
2018-11-13T10:31:44.069Z,19.92
2018-11-13T10:32:43.972Z,19.9
2018-11-13T10:33:43.810Z,19.89
2018-11-13T10:34:43.989Z,19.91
2018-11-13T10:35:44.149Z,19.89
2018-11-13T10:36:44.110Z,19.9
2018-11-13T10:37:43.837Z,19.89
2018-11-13T10:38:43.873Z,19.89
2018-11-13T10:39:43.932Z,19.89
2018-11-13T10:40:45.417Z,19.88
2018-11-13T10:41:44.120Z,19.88
2018-11-13T10:42:43.878Z,19.88
2018-11-13T10:43:45.388Z,19.86
2018-11-13T10:44:43.719Z,19.88
2018-11-13T10:45:44.279Z,19.86
2018-11-13T10:46:43.692Z,19.87
2018-11-13T10:47:43.954Z,19.86
2018-11-13T10:48:44.204Z,19.85
2018-11-13T10:49:44.034Z,19.85
2018-11-13T10:50:43.893Z,19.85
2018-11-13T10:51:43.761Z,19.83
2018-11-13T10:52:44.012Z,19.85
2018-11-13T10:53:43.781Z,19.85
2018-11-13T10:54:43.825Z,19.85
2018-11-13T10:55:44.015Z,19.84
2018-11-13T10:56:43.804Z,19.82
2018-11-13T10:57:43.907Z,19.83
2018-11-13T10:58:44.068Z,19.82
2018-11-13T10:59:46.543Z,19.83
2018-11-13T11:00:43.742Z,19.82
2018-11-13T11:01:43.979Z,19.82
2018-11-13T11:02:45.004Z,19.83
2018-11-13T11:03:43.878Z,19.82
2018-11-13T11:04:43.897Z,19.79
2018-11-13T11:05:43.882Z,19.81
2018-11-13T11:06:44.323Z,19.79
2018-11-13T11:07:43.744Z,19.8
2018-11-13T11:08:43.825Z,19.81
2018-11-13T11:09:43.800Z,19.8
2018-11-13T11:10:43.890Z,19.81
2018-11-13T11:11:43.947Z,19.79
2018-11-13T11:12:44.117Z,19.8
2018-11-13T11:13:45.012Z,19.8
2018-11-13T11:14:43.754Z,19.8
2018-11-13T11:15:44.098Z,19.79
2018-11-13T11:16:43.727Z,19.77
2018-11-13T11:17:43.874Z,19.77
2018-11-13T11:18:44.989Z,19.79
2018-11-13T11:19:43.744Z,19.77
2018-11-13T11:20:43.915Z,19.75
2018-11-13T11:21:43.783Z,19.77
2018-11-13T11:22:44.409Z,19.75
2018-11-13T11:23:45.452Z,19.77
2018-11-13T11:24:43.907Z,19.77
2018-11-13T11:25:43.899Z,19.76
2018-11-13T11:26:43.778Z,19.76
2018-11-13T11:27:44.159Z,19.77
2018-11-13T11:28:43.877Z,19.77
2018-11-13T11:29:43.873Z,19.75
2018-11-13T11:30:43.723Z,19.75
2018-11-13T11:31:43.988Z,19.77
2018-11-13T11:32:44.032Z,19.75
2018-11-13T11:33:43.869Z,19.74
2018-11-13T11:34:43.934Z,19.74
2018-11-13T11:35:43.885Z,19.75
2018-11-13T11:36:43.930Z,19.74
2018-11-13T11:37:43.792Z,19.74
2018-11-13T11:38:44.991Z,19.74
2018-11-13T11:39:43.767Z,19.73
2018-11-13T11:40:43.699Z,19.72
2018-11-13T11:41:43.723Z,19.72
2018-11-13T11:42:43.877Z,19.72
2018-11-13T11:43:43.943Z,19.71
2018-11-13T11:44:43.728Z,19.72
2018-11-13T11:45:43.913Z,19.72
2018-11-13T11:46:44.093Z,19.71
2018-11-13T11:47:43.862Z,19.74
2018-11-13T11:48:43.702Z,19.74
2018-11-13T11:49:43.780Z,19.72
2018-11-13T11:50:43.936Z,19.72
2018-11-13T11:51:43.837Z,19.7
2018-11-13T11:52:43.953Z,19.7
2018-11-13T11:53:44.495Z,19.71
2018-11-13T11:54:44.160Z,19.7
2018-11-13T11:55:43.787Z,19.7
2018-11-13T11:56:43.970Z,19.7
2018-11-13T11:57:43.992Z,19.7
2018-11-13T11:58:43.960Z,19.68
2018-11-13T11:59:43.960Z,19.69
2018-11-13T12:00:44.928Z,19.69
2018-11-13T12:01:44.043Z,19.68
2018-11-13T12:02:43.892Z,19.68
2018-11-13T12:03:43.995Z,19.69
2018-11-13T12:04:44.061Z,19.69
2018-11-13T12:05:43.905Z,19.68
2018-11-13T12:06:44.668Z,19.69
2018-11-13T12:07:43.698Z,19.69
2018-11-13T12:08:43.942Z,19.69
2018-11-13T12:09:43.864Z,19.7
2018-11-13T12:10:43.632Z,19.67
2018-11-13T12:11:43.902Z,19.68
2018-11-13T12:12:43.701Z,19.68
2018-11-13T12:13:43.821Z,19.67
2018-11-13T12:14:43.932Z,19.67
2018-11-13T12:15:43.877Z,19.65
2018-11-13T12:16:43.689Z,19.68
2018-11-13T12:17:44.011Z,19.68
2018-11-13T12:18:44.226Z,19.69
2018-11-13T12:19:44.044Z,19.67
2018-11-13T12:20:43.994Z,19.67
2018-11-13T12:21:43.772Z,19.66
2018-11-13T12:22:43.846Z,19.67
2018-11-13T12:23:44.309Z,19.67
2018-11-13T12:24:44.713Z,19.67
2018-11-13T12:25:44.850Z,19.67
2018-11-13T12:26:43.866Z,19.66
2018-11-13T12:27:44.208Z,19.66
2018-11-13T12:28:43.723Z,19.67
2018-11-13T12:29:44.337Z,19.66
2018-11-13T12:30:43.882Z,19.66
2018-11-13T12:31:44.118Z,19.68
2018-11-13T12:32:44.864Z,19.68
2018-11-13T12:33:44.086Z,19.66
2018-11-13T12:34:45.045Z,19.63
2018-11-13T12:35:43.738Z,19.63
2018-11-13T12:36:43.973Z,19.65
2018-11-13T12:37:43.795Z,19.66
2018-11-13T12:38:43.792Z,19.66
2018-11-13T12:39:43.949Z,19.63
2018-11-13T12:40:44.784Z,19.66
2018-11-13T12:41:43.936Z,19.65
2018-11-13T12:42:44.116Z,19.66
2018-11-13T12:43:44.034Z,19.66
2018-11-13T12:44:43.859Z,19.65
2018-11-13T12:45:43.820Z,19.63
2018-11-13T12:46:43.768Z,19.65
2018-11-13T12:47:43.899Z,19.65
2018-11-13T12:48:44.387Z,19.63
2018-11-13T12:49:43.726Z,19.62
2018-11-13T12:50:43.899Z,19.62
2018-11-13T12:51:44.091Z,19.63
2018-11-13T12:52:44.192Z,19.62
2018-11-13T12:53:43.813Z,19.62
2018-11-13T12:54:43.882Z,19.62